createdAt,value
2023-03-08T05:01:24.688Z,98814.44
2023-03-08T05:03:53.733Z,98834.75
2023-03-08T05:06:29.335Z,98802.31
2023-03-08T05:08:57.466Z,98794.25
2023-03-08T05:11:26.715Z,98750.09
2023-03-08T05:13:55.244Z,98716.44
2023-03-08T05:16:23.350Z,98754.09
2023-03-08T05:18:51.157Z,98706.50
2023-03-08T05:21:22.010Z,98733.31
2023-03-08T05:23:53.155Z,98747.22
2023-03-08T05:26:25.759Z,98786.34
2023-03-08T05:28:52.588Z,98788.88
2023-03-08T05:31:25.326Z,98774.03
2023-03-08T05:33:55.668Z,98781.78
2023-03-08T05:36:30.811Z,98723.84
2023-03-08T05:38:58.472Z,98779.97
2023-03-08T05:41:33.689Z,98763.50
2023-03-08T05:44:02.355Z,98773.09
2023-03-08T05:46:33.010Z,98756.41
2023-03-08T05:49:02.113Z,98753.78
2023-03-08T05:51:33.875Z,98695.25
2023-03-08T05:54:01.284Z,98744.69
2023-03-08T05:56:29.604Z,98737.16
2023-03-08T05:59:05.466Z,98704.59
2023-03-08T06:01:32.811Z,98728.72
2023-03-08T06:04:12.621Z,98787.16
2023-03-08T06:06:42.460Z,98754.72
2023-03-08T06:09:09.562Z,98725.63
2023-03-08T06:11:42.885Z,98665.25
2023-03-08T06:14:12.175Z,98660.50
2023-03-08T06:16:40.915Z,98687.56
2023-03-08T06:19:08.093Z,98645.09
2023-03-08T06:21:37.089Z,98719.75
2023-03-08T06:24:05.863Z,98699.44
2023-03-08T06:26:33.221Z,98741.66
2023-03-08T06:29:01.018Z,98566.53
2023-03-08T06:31:30.570Z,98583.44
2023-03-08T06:33:58.026Z,98742.34
2023-03-08T06:36:27.632Z,98634.94
2023-03-08T06:38:54.709Z,98692.16
2023-03-08T06:41:21.821Z,98698.75
2023-03-08T06:43:53.198Z,98725.88
2023-03-08T06:46:22.424Z,98683.41
2023-03-08T06:48:49.296Z,98640.81
2023-03-08T06:51:18.693Z,98653.22
2023-03-08T06:53:46.531Z,98674.28
2023-03-08T06:56:16.648Z,98671.91
2023-03-08T06:58:44.803Z,98702.09
2023-03-08T07:01:11.648Z,98721.72
2023-03-08T07:03:38.496Z,98591.00
2023-03-08T07:06:09.834Z,98674.28
2023-03-08T07:08:37.086Z,98714.88
2023-03-08T07:11:04.109Z,98688.19
2023-03-08T07:13:30.961Z,98641.78
2023-03-08T07:15:57.916Z,98686.34
2023-03-08T07:18:24.727Z,98622.00
2023-03-08T07:20:57.874Z,98635.69
2023-03-08T07:23:25.847Z,98622.28
2023-03-08T07:25:52.874Z,98624.63
2023-03-08T07:28:22.207Z,98681.25
2023-03-08T07:30:49.708Z,98566.38
2023-03-08T07:33:17.533Z,98642.06
2023-03-08T07:35:44.484Z,98662.28
2023-03-08T07:38:14.192Z,98605.75
2023-03-08T07:40:40.927Z,98654.50
2023-03-08T07:43:07.725Z,98517.47
2023-03-08T07:45:43.181Z,98610.31
2023-03-08T07:48:10.396Z,98630.03
2023-03-08T07:50:37.382Z,98526.41
2023-03-08T07:53:04.708Z,98598.63
2023-03-08T07:55:33.483Z,98547.97
2023-03-08T07:58:00.808Z,98515.06
2023-03-08T08:00:28.426Z,98653.50
2023-03-08T08:02:55.577Z,98630.03
2023-03-08T08:05:23.309Z,98561.84
2023-03-08T08:07:50.627Z,98478.72
2023-03-08T08:10:18.963Z,98544.34
2023-03-08T08:12:46.406Z,98524.59
2023-03-08T08:15:13.468Z,98483.34
2023-03-08T08:17:40.248Z,98512.91
2023-03-08T08:20:08.450Z,98573.91
2023-03-08T08:22:36.539Z,98518.59
2023-03-08T08:25:07.835Z,98554.88
2023-03-08T08:27:43.768Z,98521.66
2023-03-08T08:30:13.062Z,98571.00
2023-03-08T08:32:41.026Z,98547.84
2023-03-08T08:35:08.288Z,98528.75
2023-03-08T08:37:35.747Z,98567.00
2023-03-08T08:40:04.403Z,98503.34
2023-03-08T08:42:31.110Z,98461.00
2023-03-08T08:44:57.917Z,98484.75
2023-03-08T08:47:24.744Z,98432.47
2023-03-08T08:49:52.127Z,98458.66
2023-03-08T08:52:19.251Z,98541.56
2023-03-08T08:54:46.265Z,98450.75
2023-03-08T08:57:13.060Z,98371.81
2023-03-08T08:59:40.536Z,98479.16
2023-03-08T09:02:07.456Z,98422.69
2023-03-08T09:04:34.711Z,98448.16
2023-03-08T09:07:02.054Z,98368.09
2023-03-08T09:09:28.891Z,98456.78
2023-03-08T09:11:56.223Z,98441.81
2023-03-08T09:14:23.321Z,98351.28
2023-03-08T09:16:50.447Z,98420.31
2023-03-08T09:19:20.381Z,98372.00
2023-03-08T09:21:47.187Z,98404.41
2023-03-08T09:24:17.366Z,98367.44
2023-03-08T09:26:44.085Z,98431.13
2023-03-08T09:29:11.457Z,98420.63
2023-03-08T09:31:38.503Z,98391.38
2023-03-08T09:34:09.396Z,98399.25
2023-03-08T09:36:37.258Z,98422.81
2023-03-08T09:39:09.092Z,98429.16
2023-03-08T09:41:59.501Z,98429.16
2023-03-08T09:44:34.980Z,98388.72
2023-03-08T09:47:06.414Z,98360.78
2023-03-08T09:49:35.209Z,98380.66
2023-03-08T09:52:43.372Z,98382.09
2023-03-08T09:55:30.430Z,98374.31
2023-03-08T09:58:04.217Z,98352.69
2023-03-08T10:00:35.750Z,98237.84
2023-03-08T10:03:25.035Z,98394.97
2023-03-08T10:06:11.766Z,98352.13
2023-03-08T10:08:45.848Z,98286.78
2023-03-08T10:11:41.814Z,98316.13
2023-03-08T10:14:19.812Z,98361.94
2023-03-08T10:16:50.191Z,98352.84
2023-03-08T10:19:33.089Z,98246.63
2023-03-08T10:22:01.285Z,98285.13
2023-03-08T10:24:31.582Z,98313.91
2023-03-08T10:27:25.635Z,98333.81
2023-03-08T10:29:53.980Z,98214.19
2023-03-08T10:32:23.166Z,98256.47
2023-03-08T10:34:51.740Z,98278.56
2023-03-08T10:37:22.272Z,98284.97
2023-03-08T10:39:54.932Z,98248.38
2023-03-08T10:42:23.683Z,98271.06
2023-03-08T10:45:01.968Z,98299.44
2023-03-08T10:47:30.706Z,98291.56
2023-03-08T10:50:18.417Z,98322.50
2023-03-08T10:52:49.374Z,98324.09
2023-03-08T10:55:18.272Z,98173.31
2023-03-08T10:57:59.892Z,98324.94
2023-03-08T11:00:26.822Z,98240.88
2023-03-08T11:03:18.772Z,98265.34
2023-03-08T11:06:15.176Z,98305.59
2023-03-08T11:08:53.081Z,98197.28
2023-03-08T11:11:19.912Z,98182.13
2023-03-08T11:13:51.996Z,98276.84
2023-03-08T11:16:37.874Z,98295.25
2023-03-08T11:19:41.849Z,98290.53
2023-03-08T11:22:33.072Z,98292.00
2023-03-08T11:25:09.253Z,98295.19
2023-03-08T11:28:02.526Z,98128.31
2023-03-08T11:30:58.964Z,98288.22
2023-03-08T11:33:35.184Z,98286.69
2023-03-08T11:36:23.369Z,98278.09
2023-03-08T11:39:17.443Z,98226.69
2023-03-08T11:41:47.820Z,98190.88
2023-03-08T11:44:21.690Z,98235.97
2023-03-08T11:47:12.258Z,98287.91
2023-03-08T11:50:06.334Z,98281.69
2023-03-08T11:52:52.861Z,98210.53
2023-03-08T11:55:44.880Z,98290.06
2023-03-08T11:58:18.972Z,98239.38
2023-03-08T12:00:47.090Z,98182.94
2023-03-08T12:03:15.318Z,98305.16
2023-03-08T12:05:52.148Z,98155.84
2023-03-08T12:08:31.876Z,98177.59
2023-03-08T12:11:23.712Z,98203.13
2023-03-08T12:13:55.281Z,98133.22
2023-03-08T12:16:26.364Z,98275.78
2023-03-08T12:18:58.191Z,98200.69
2023-03-08T12:21:40.501Z,98270.59
2023-03-08T12:24:10.574Z,98273.56
2023-03-08T12:26:49.116Z,98229.19
2023-03-08T12:29:30.083Z,98172.88
2023-03-08T12:31:57.745Z,98097.38
2023-03-08T12:34:37.899Z,98264.03
2023-03-08T12:37:05.014Z,98180.75
2023-03-08T12:39:36.607Z,98146.78
2023-03-08T12:42:16.425Z,98243.25
2023-03-08T12:44:44.095Z,98117.34
2023-03-08T12:47:14.655Z,98198.13
2023-03-08T12:49:44.098Z,98110.78
2023-03-08T12:52:21.800Z,98235.50
2023-03-08T12:55:19.417Z,98218.41
2023-03-08T12:57:57.954Z,98159.22
2023-03-08T13:00:44.292Z,98192.75
2023-03-08T13:03:14.637Z,98236.94
2023-03-08T13:05:49.883Z,98100.69
2023-03-08T13:08:16.906Z,98197.75
2023-03-08T13:10:53.166Z,98202.22
2023-03-08T13:13:39.171Z,98170.78
2023-03-08T13:16:08.771Z,98111.63
2023-03-08T13:18:37.191Z,98245.03
2023-03-08T13:21:46.505Z,98142.75
2023-03-08T13:24:38.299Z,98122.56
2023-03-08T13:27:12.988Z,98138.44
2023-03-08T13:29:42.019Z,98229.44
2023-03-08T13:32:13.458Z,98127.13
2023-03-08T13:34:42.005Z,98071.22
2023-03-08T13:37:25.238Z,98156.19
2023-03-08T13:39:56.230Z,98202.41
2023-03-08T13:42:25.045Z,98086.34
2023-03-08T13:44:53.896Z,98088.66
2023-03-08T13:47:39.592Z,98148.84
2023-03-08T13:50:06.648Z,98186.34
2023-03-08T13:52:37.092Z,98235.00
2023-03-08T13:55:06.298Z,98272.78
2023-03-08T13:57:37.688Z,98244.09
2023-03-08T14:00:31.583Z,98224.84
2023-03-08T14:03:00.464Z,98082.34
2023-03-08T14:05:29.088Z,98118.16
2023-03-08T14:08:26.950Z,98089.16
2023-03-08T14:11:05.445Z,98076.81
2023-03-08T14:13:37.404Z,98186.00
2023-03-08T14:16:07.197Z,98103.84
2023-03-08T14:18:39.542Z,98062.41
2023-03-08T14:21:17.698Z,98183.03
2023-03-08T14:23:58.577Z,98059.06
2023-03-08T14:26:29.526Z,98206.19
2023-03-08T14:29:22.737Z,98184.28
2023-03-08T14:32:05.691Z,98058.19
2023-03-08T14:34:39.587Z,98186.06
2023-03-08T14:37:12.869Z,98191.78
2023-03-08T14:39:44.347Z,98158.03
2023-03-08T14:42:49.077Z,98175.13
2023-03-08T14:45:23.773Z,98194.97
2023-03-08T14:47:58.714Z,98093.13
2023-03-08T14:50:33.541Z,98084.50
2023-03-08T14:53:01.732Z,98081.13
2023-03-08T14:55:29.547Z,98091.44
2023-03-08T14:58:04.361Z,98016.00
2023-03-08T15:00:32.974Z,98111.34
2023-03-08T15:03:00.474Z,98059.84
2023-03-08T15:05:29.418Z,98033.41
2023-03-08T15:07:57.575Z,98067.97
2023-03-08T15:10:29.510Z,98071.50
2023-03-08T15:12:56.664Z,98074.03
2023-03-08T15:15:24.655Z,98103.03
2023-03-08T15:17:52.103Z,98030.72
2023-03-08T15:20:19.476Z,98189.56
2023-03-08T15:22:53.531Z,98149.34
2023-03-08T15:25:25.930Z,98164.41
2023-03-08T15:27:52.902Z,98170.69
2023-03-08T15:30:24.460Z,98107.19
2023-03-08T15:32:51.524Z,98039.09
2023-03-08T15:35:18.951Z,98088.75
2023-03-08T15:37:45.929Z,98097.38
2023-03-08T15:40:18.555Z,98051.47
2023-03-08T15:42:45.700Z,98089.16
2023-03-08T15:45:13.503Z,98097.44
2023-03-08T15:47:41.990Z,98002.25
2023-03-08T15:50:16.617Z,98085.47
2023-03-08T15:52:45.022Z,98094.25
2023-03-08T15:55:13.107Z,98049.88
2023-03-08T15:57:40.792Z,98138.47
2023-03-08T16:00:09.828Z,98070.50
2023-03-08T16:02:37.896Z,98096.56
2023-03-08T16:05:05.830Z,98117.22
2023-03-08T16:07:36.035Z,98062.66
2023-03-08T16:10:04.624Z,98025.47
2023-03-08T16:12:31.670Z,98019.13
2023-03-08T16:14:59.571Z,98068.16
2023-03-08T16:17:29.447Z,98051.44
2023-03-08T16:19:56.442Z,98069.06
2023-03-08T16:22:23.335Z,98025.97
2023-03-08T16:24:50.563Z,98007.81
2023-03-08T16:27:17.540Z,98026.31
2023-03-08T16:29:44.573Z,98073.91
2023-03-08T16:32:15.456Z,98062.81
2023-03-08T16:34:42.453Z,98103.25
2023-03-08T16:37:09.852Z,98007.31
2023-03-08T16:39:36.903Z,98003.34
2023-03-08T16:42:04.273Z,98051.88
2023-03-08T16:44:32.886Z,98107.47
2023-03-08T16:46:59.924Z,98053.59
2023-03-08T16:49:28.915Z,98030.59
2023-03-08T16:51:56.847Z,98075.13
2023-03-08T16:54:27.176Z,98019.47
2023-03-08T16:56:54.644Z,97976.25
2023-03-08T16:59:22.979Z,97987.13
2023-03-08T17:01:50.448Z,98038.59
2023-03-08T17:04:18.522Z,97963.34
2023-03-08T17:06:45.711Z,97972.03
2023-03-08T17:09:14.538Z,97999.91
2023-03-08T17:11:42.460Z,98087.00
2023-03-08T17:14:11.090Z,98082.09
2023-03-08T17:16:40.275Z,97986.50
2023-03-08T17:19:08.582Z,98058.88
2023-03-08T17:21:40.973Z,98052.53
2023-03-08T17:24:09.722Z,97967.50
2023-03-08T17:26:37.022Z,98000.47
2023-03-08T17:29:12.640Z,97993.69
2023-03-08T17:31:41.042Z,98015.44
2023-03-08T17:34:08.083Z,98111.78
2023-03-08T17:36:35.109Z,98080.38
2023-03-08T17:39:02.304Z,97986.03
2023-03-08T17:41:29.330Z,98022.72
2023-03-08T17:43:56.141Z,97959.28
2023-03-08T17:46:24.103Z,98031.47
2023-03-08T17:48:51.648Z,98043.44
2023-03-08T17:51:20.342Z,98063.25
2023-03-08T17:53:47.415Z,98059.34
2023-03-08T17:56:22.495Z,97993.63
2023-03-08T17:58:49.425Z,98048.31
2023-03-08T18:01:18.207Z,98011.03
2023-03-08T18:03:45.217Z,97987.28
2023-03-08T18:06:29.380Z,98103.72
2023-03-08T18:08:57.548Z,98069.09
2023-03-08T18:11:26.953Z,98124.78
2023-03-08T18:13:53.935Z,98073.22
2023-03-08T18:16:21.752Z,98026.00
2023-03-08T18:18:49.849Z,98062.38
2023-03-08T18:21:20.983Z,98098.34
2023-03-08T18:23:47.884Z,98038.94
2023-03-08T18:26:16.062Z,98044.44
2023-03-08T18:28:43.999Z,97985.16
2023-03-08T18:31:13.671Z,98035.09
2023-03-08T18:33:42.074Z,98067.53
2023-03-08T18:36:09.152Z,98031.31
2023-03-08T18:38:36.679Z,97967.06
2023-03-08T18:41:27.850Z,97932.03
2023-03-08T18:43:55.877Z,97963.69
2023-03-08T18:47:31.221Z,98085.81
2023-03-08T18:50:15.010Z,97916.06
2023-03-08T18:52:52.321Z,97985.78
2023-03-08T18:55:54.047Z,97965.19
2023-03-08T18:58:24.439Z,97949.94
2023-03-08T19:01:09.594Z,97944.38
2023-03-08T19:03:39.292Z,97917.91
2023-03-08T19:06:09.974Z,97976.50
2023-03-08T19:08:40.699Z,98039.38
2023-03-08T19:11:28.171Z,98027.31
2023-03-08T19:13:57.825Z,98016.94
2023-03-08T19:16:27.570Z,98083.47
2023-03-08T19:18:57.034Z,98017.31
2023-03-08T19:21:26.279Z,97985.19
2023-03-08T19:23:54.241Z,98089.25
2023-03-08T19:26:38.243Z,98057.91
2023-03-08T19:29:17.786Z,98064.72
2023-03-08T19:31:55.908Z,98096.63
2023-03-08T19:34:28.408Z,98025.03
2023-03-08T19:36:55.618Z,98016.78
2023-03-08T19:39:26.612Z,98109.47
2023-03-08T19:41:56.350Z,98154.91
2023-03-08T19:44:23.548Z,98057.19
2023-03-08T19:46:59.008Z,98140.03
2023-03-08T19:49:59.180Z,98026.03
2023-03-08T19:52:26.635Z,98013.94
2023-03-08T19:55:00.100Z,98137.28
2023-03-08T19:58:01.684Z,98080.84
2023-03-08T20:04:15.728Z,98106.81
2023-03-08T20:07:35.657Z,98116.44
2023-03-08T20:10:37.274Z,98052.44
2023-03-08T20:13:31.873Z,98089.19
2023-03-08T20:16:15.750Z,98042.97
2023-03-08T20:18:54.932Z,98045.56
2023-03-08T20:21:29.910Z,98126.06
2023-03-08T20:23:57.734Z,98048.31
2023-03-08T20:26:29.104Z,98141.81
2023-03-08T20:28:59.512Z,97990.25
2023-03-08T20:31:30.507Z,98064.06
2023-03-08T20:33:57.541Z,98186.97
2023-03-08T20:36:25.689Z,98021.31
2023-03-08T20:38:57.790Z,98166.28
2023-03-08T20:41:30.402Z,98025.97
2023-03-08T20:44:11.018Z,98115.13
2023-03-08T20:46:41.345Z,98176.91
2023-03-08T20:49:14.013Z,98143.22
2023-03-08T20:51:44.223Z,98044.06
2023-03-08T20:54:14.490Z,98074.25
2023-03-08T20:56:55.918Z,98110.84
2023-03-08T20:59:24.435Z,98071.28
2023-03-08T21:01:56.887Z,98049.13
2023-03-08T21:04:43.444Z,98076.88
2023-03-08T21:07:18.459Z,97965.13
2023-03-08T21:09:47.938Z,98023.78
2023-03-08T21:12:18.122Z,98030.50
2023-03-08T21:14:45.615Z,98047.66
2023-03-08T21:17:40.434Z,97996.22
2023-03-08T21:20:12.010Z,98125.16
2023-03-08T21:22:55.170Z,98071.44
2023-03-08T21:25:28.273Z,97996.13
2023-03-08T21:28:05.865Z,98121.88
2023-03-08T21:30:37.261Z,98081.28
2023-03-08T21:33:08.879Z,98030.91
2023-03-08T21:35:44.760Z,98086.84
2023-03-08T21:38:11.941Z,98154.03
2023-03-08T21:40:41.268Z,98047.91
2023-03-08T21:43:09.504Z,98007.31
2023-03-08T21:45:40.756Z,98052.28
2023-03-08T21:48:10.594Z,98139.59
2023-03-08T21:50:40.456Z,98038.28
2023-03-08T21:53:07.984Z,98086.34
2023-03-08T21:55:45.066Z,98102.25
2023-03-08T21:58:13.975Z,98052.69
2023-03-08T22:00:40.836Z,98071.09
2023-03-08T22:03:07.610Z,98053.28
2023-03-08T22:05:34.464Z,98063.53
2023-03-08T22:08:01.896Z,98071.56
2023-03-08T22:10:28.888Z,98083.44
2023-03-08T22:13:05.692Z,98036.66
2023-03-08T22:15:35.778Z,98047.50
2023-03-08T22:18:02.727Z,98089.56
2023-03-08T22:20:29.904Z,98090.00
2023-03-08T22:22:56.549Z,98104.28
2023-03-08T22:25:23.273Z,98046.13
2023-03-08T22:27:49.990Z,98074.03
